sensor_id;sensor_type;location;lat;lon;timestamp;pressure;altitude;pressure_sealevel;temperature;humidity
33404;BME280;19751;40.274;18.268;2023-12-22T00:01:23;100095.66;;;10.59;100.00
33404;BME280;19751;40.274;18.268;2023-12-22T00:03:49;100088.16;;;10.61;100.00
33404;BME280;19751;40.274;18.268;2023-12-22T00:06:15;100086.31;;;10.61;100.00
33404;BME280;19751;40.274;18.268;2023-12-22T00:08:41;100078.03;;;10.63;100.00
33404;BME280;19751;40.274;18.268;2023-12-22T00:11:07;100077.63;;;10.66;100.00
33404;BME280;19751;40.274;18.268;2023-12-22T00:13:32;100078.25;;;10.68;100.00
33404;BME280;19751;40.274;18.268;2023-12-22T00:15:59;100071.63;;;10.70;100.00
33404;BME280;19751;40.274;18.268;2023-12-22T00:18:25;100071.63;;;10.70;100.00
33404;BME280;19751;40.274;18.268;2023-12-22T00:20:51;100064.38;;;10.71;100.00
33404;BME280;19751;40.274;18.268;2023-12-22T00:23:16;100048.81;;;10.73;100.00
33404;BME280;19751;40.274;18.268;2023-12-22T00:25:42;100056.28;;;10.78;100.00
33404;BME280;19751;40.274;18.268;2023-12-22T00:28:07;100051.13;;;10.83;100.00
33404;BME280;19751;40.274;18.268;2023-12-22T00:30:33;100053.38;;;10.86;100.00
33404;BME280;19751;40.274;18.268;2023-12-22T00:32:59;100049.22;;;10.90;100.00
33404;BME280;19751;40.274;18.268;2023-12-22T00:35:24;100048.59;;;10.94;100.00
33404;BME280;19751;40.274;18.268;2023-12-22T00:37:50;100048.19;;;11.04;100.00
33404;BME280;19751;40.274;18.268;2023-12-22T00:40:15;100055.44;;;11.10;100.00
33404;BME280;19751;40.274;18.268;2023-12-22T00:42:41;100046.53;;;11.16;100.00
33404;BME280;19751;40.274;18.268;2023-12-22T00:45:06;100044.84;;;11.22;100.00
33404;BME280;19751;40.274;18.268;2023-12-22T00:47:32;100052.28;;;11.27;100.00
33404;BME280;19751;40.274;18.268;2023-12-22T00:50:01;100047.31;;;11.30;100.00
33404;BME280;19751;40.274;18.268;2023-12-22T00:52:27;100062.25;;;11.33;100.00
33404;BME280;19751;40.274;18.268;2023-12-22T00:54:52;100062.03;;;11.34;100.00
33404;BME280;19751;40.274;18.268;2023-12-22T00:57:18;100062.66;;;11.36;100.00
33404;BME280;19751;40.274;18.268;2023-12-22T00:59:43;100054.13;;;11.39;100.00
33404;BME280;19751;40.274;18.268;2023-12-22T01:02:16;100055.59;;;11.42;100.00
33404;BME280;19751;40.274;18.268;2023-12-22T01:04:42;100054.31;;;11.44;100.00
33404;BME280;19751;40.274;18.268;2023-12-22T01:07:08;100051.19;;;11.48;100.00
33404;BME280;19751;40.274;18.268;2023-12-22T01:09:34;100051.19;;;11.48;100.00
33404;BME280;19751;40.274;18.268;2023-12-22T01:12:00;100041.03;;;11.50;100.00
33404;BME280;19751;40.274;18.268;2023-12-22T01:14:29;100037.06;;;11.52;100.00
33404;BME280;19751;40.274;18.268;2023-12-22T01:16:54;100037.47;;;11.56;100.00
33404;BME280;19751;40.274;18.268;2023-12-22T01:19:20;100033.72;;;11.57;100.00
33404;BME280;19751;40.274;18.268;2023-12-22T01:21:46;100033.72;;;11.57;100.00
33404;BME280;19751;40.274;18.268;2023-12-22T01:24:11;100032.91;;;11.56;100.00
33404;BME280;19751;40.274;18.268;2023-12-22T01:26:37;100022.94;;;11.57;100.00
33404;BME280;19751;40.274;18.268;2023-12-22T01:29:02;100013.84;;;11.58;100.00
33404;BME280;19751;40.274;18.268;2023-12-22T01:31:28;100014.84;;;11.57;100.00
33404;BME280;19751;40.274;18.268;2023-12-22T01:33:54;100000.34;;;11.58;100.00
33404;BME280;19751;40.274;18.268;2023-12-22T01:36:19;99997.66;;;11.58;100.00
33404;BME280;19751;40.274;18.268;2023-12-22T01:38:45;99999.91;;;11.61;100.00
33404;BME280;19751;40.274;18.268;2023-12-22T01:41:10;99991.81;;;11.61;100.00
33404;BME280;19751;40.274;18.268;2023-12-22T01:43:35;99984.78;;;11.60;100.00
33404;BME280;19751;40.274;18.268;2023-12-22T01:46:01;99985.81;;;11.59;100.00
33404;BME280;19751;40.274;18.268;2023-12-22T01:48:28;99972.34;;;11.59;100.00
33404;BME280;19751;40.274;18.268;2023-12-22T01:50:55;99985.00;;;11.58;100.00
33404;BME280;19751;40.274;18.268;2023-12-22T01:53:21;99969.63;;;11.59;100.00
33404;BME280;19751;40.274;18.268;2023-12-22T01:55:50;99962.38;;;11.59;100.00
33404;BME280;19751;40.274;18.268;2023-12-22T01:58:17;99975.03;;;11.59;100.00
33404;BME280;19751;40.274;18.268;2023-12-22T02:00:43;99965.28;;;11.58;100.00
33404;BME280;19751;40.274;18.268;2023-12-22T02:03:09;99955.53;;;11.57;100.00
33404;BME280;19751;40.274;18.268;2023-12-22T02:05:34;99946.59;;;11.56;100.00
33404;BME280;19751;40.274;18.268;2023-12-22T02:08:00;99948.72;;;11.54;100.00
33404;BME280;19751;40.274;18.268;2023-12-22T02:10:26;99948.72;;;11.54;100.00
33404;BME280;19751;40.274;18.268;2023-12-22T02:12:51;99945.19;;;11.54;100.00
33404;BME280;19751;40.274;18.268;2023-12-22T02:15:17;99936.28;;;11.53;100.00
33404;BME280;19751;40.274;18.268;2023-12-22T02:17:59;99935.41;;;11.53;100.00
33404;BME280;19751;40.274;18.268;2023-12-22T02:20:28;99940.22;;;11.51;100.00
33404;BME280;19751;40.274;18.268;2023-12-22T02:22:55;99930.91;;;11.47;100.00
33404;BME280;19751;40.274;18.268;2023-12-22T02:25:20;99928.44;;;11.45;100.00
33404;BME280;19751;40.274;18.268;2023-12-22T02:27:49;99919.94;;;11.41;100.00
33404;BME280;19751;40.274;18.268;2023-12-22T02:30:26;99910.19;;;11.40;100.00
33404;BME280;19751;40.274;18.268;2023-12-22T02:32:59;99906.66;;;11.40;100.00
33404;BME280;19751;40.274;18.268;2023-12-22T02:35:26;99907.69;;;11.39;100.00
33404;BME280;19751;40.274;18.268;2023-12-22T02:37:54;99914.56;;;11.35;100.00
33404;BME280;19751;40.274;18.268;2023-12-22T02:40:22;99897.16;;;11.31;100.00
33404;BME280;19751;40.274;18.268;2023-12-22T02:42:49;99885.16;;;11.27;100.00
33404;BME280;19751;40.274;18.268;2023-12-22T02:45:17;99886.22;;;11.19;100.00
33404;BME280;19751;40.274;18.268;2023-12-22T02:47:43;99871.50;;;11.15;100.00
33404;BME280;19751;40.274;18.268;2023-12-22T02:50:09;99875.25;;;11.14;100.00
33404;BME280;19751;40.274;18.268;2023-12-22T02:52:35;99885.63;;;11.10;100.00
33404;BME280;19751;40.274;18.268;2023-12-22T02:55:04;99885.69;;;11.04;100.00
33404;BME280;19751;40.274;18.268;2023-12-22T02:57:30;99877.38;;;10.99;100.00
33404;BME280;19751;40.274;18.268;2023-12-22T02:59:56;99868.94;;;10.95;100.00
33404;BME280;19751;40.274;18.268;2023-12-22T03:02:21;99868.94;;;10.95;100.00
33404;BME280;19751;40.274;18.268;2023-12-22T03:04:47;99869.94;;;10.94;100.00
33404;BME280;19751;40.274;18.268;2023-12-22T03:07:13;99860.00;;;10.94;100.00
33404;BME280;19751;40.274;18.268;2023-12-22T03:09:39;99852.75;;;10.95;100.00
33404;BME280;19751;40.274;18.268;2023-12-22T03:12:08;99848.59;;;10.99;100.00
33404;BME280;19751;40.274;18.268;2023-12-22T03:14:34;99848.38;;;11.01;100.00
33404;BME280;19751;40.274;18.268;2023-12-22T03:17:00;99846.28;;;11.03;100.00
33404;BME280;19751;40.274;18.268;2023-12-22T03:19:26;99848.97;;;11.03;100.00
33404;BME280;19751;40.274;18.268;2023-12-22T03:21:52;99844.44;;;11.03;100.00
33404;BME280;19751;40.274;18.268;2023-12-22T03:24:17;99844.44;;;11.03;100.00
33404;BME280;19751;40.274;18.268;2023-12-22T03:26:48;99844.63;;;11.02;100.00
33404;BME280;19751;40.274;18.268;2023-12-22T03:29:13;99844.03;;;11.00;100.00
33404;BME280;19751;40.274;18.268;2023-12-22T03:31:39;99847.75;;;10.99;100.00
33404;BME280;19751;40.274;18.268;2023-12-22T03:34:05;99853.13;;;10.99;100.00
33404;BME280;19751;40.274;18.268;2023-12-22T03:36:30;99842.81;;;10.95;100.00
33404;BME280;19751;40.274;18.268;2023-12-22T03:38:56;99845.69;;;10.94;100.00
33404;BME280;19751;40.274;18.268;2023-12-22T03:41:21;99840.53;;;10.92;100.00
33404;BME280;19751;40.274;18.268;2023-12-22T03:43:47;99847.97;;;10.90;100.00
33404;BME280;19751;40.274;18.268;2023-12-22T03:46:12;99836.59;;;10.88;100.00
33404;BME280;19751;40.274;18.268;2023-12-22T03:48:38;99846.56;;;10.88;100.00
33404;BME280;19751;40.274;18.268;2023-12-22T03:51:03;99842.00;;;10.88;100.00
33404;BME280;19751;40.274;18.268;2023-12-22T03:53:29;99831.22;;;10.88;100.00
33404;BME280;19751;40.274;18.268;2023-12-22T03:55:55;99839.91;;;10.90;100.00
33404;BME280;19751;40.274;18.268;2023-12-22T03:58:20;99835.13;;;10.92;100.00
33404;BME280;19751;40.274;18.268;2023-12-22T04:00:46;99842.56;;;10.97;100.00
33404;BME280;19751;40.274;18.268;2023-12-22T04:03:11;99840.28;;;11.01;100.00
33404;BME280;19751;40.274;18.268;2023-12-22T04:05:37;99835.31;;;11.04;100.00
33404;BME280;19751;40.274;18.268;2023-12-22T04:08:02;99835.47;;;11.09;100.00
33404;BME280;19751;40.274;18.268;2023-12-22T04:10:28;99829.44;;;11.14;100.00
33404;BME280;19751;40.274;18.268;2023-12-22T04:12:53;99831.47;;;11.18;100.00
33404;BME280;19751;40.274;18.268;2023-12-22T04:15:19;99827.53;;;11.21;100.00
33404;BME280;19751;40.274;18.268;2023-12-22T04:17:44;99834.34;;;11.24;100.00
33404;BME280;19751;40.274;18.268;2023-12-22T04:20:10;99835.56;;;11.28;100.00
33404;BME280;19751;40.274;18.268;2023-12-22T04:22:36;99826.00;;;11.32;100.00
33404;BME280;19751;40.274;18.268;2023-12-22T04:25:01;99819.38;;;11.34;100.00
33404;BME280;19751;40.274;18.268;2023-12-22T04:27:27;99815.19;;;11.38;100.00
33404;BME280;19751;40.274;18.268;2023-12-22T04:29:52;99807.28;;;11.43;100.00
33404;BME280;19751;40.274;18.268;2023-12-22T04:32:18;99803.09;;;11.48;100.00
33404;BME280;19751;40.274;18.268;2023-12-22T04:34:43;99805.38;;;11.51;100.00
33404;BME280;19751;40.274;18.268;2023-12-22T04:37:09;99798.72;;;11.53;100.00
33404;BME280;19751;40.274;18.268;2023-12-22T04:39:35;99798.50;;;11.55;100.00
33404;BME280;19751;40.274;18.268;2023-12-22T04:42:00;99798.06;;;11.58;100.00
33404;BME280;19751;40.274;18.268;2023-12-22T04:44:26;99793.69;;;11.57;100.00
33404;BME280;19751;40.274;18.268;2023-12-22T04:46:51;99796.38;;;11.57;100.00
33404;BME280;19751;40.274;18.268;2023-12-22T04:49:17;99788.91;;;11.62;100.00
33404;BME280;19751;40.274;18.268;2023-12-22T04:51:43;99786.22;;;11.59;100.00
33404;BME280;19751;40.274;18.268;2023-12-22T04:54:09;99791.19;;;11.62;100.00
33404;BME280;19751;40.274;18.268;2023-12-22T04:56:34;99794.72;;;11.62;100.00
33404;BME280;19751;40.274;18.268;2023-12-22T04:59:00;99787.22;;;11.64;100.00
33404;BME280;19751;40.274;18.268;2023-12-22T05:01:25;99788.03;;;11.65;100.00
33404;BME280;19751;40.274;18.268;2023-12-22T05:03:51;99786.78;;;11.67;100.00
33404;BME280;19751;40.274;18.268;2023-12-22T05:06:16;99793.63;;;11.70;100.00
33404;BME280;19751;40.274;18.268;2023-12-22T05:08:42;99777.19;;;11.72;100.00
33404;BME280;19751;40.274;18.268;2023-12-22T05:11:07;99779.66;;;11.73;100.00
33404;BME280;19751;40.274;18.268;2023-12-22T05:13:33;99782.97;;;11.75;100.00
33404;BME280;19751;40.274;18.268;2023-12-22T05:15:58;99784.41;;;11.78;100.00
33404;BME280;19751;40.274;18.268;2023-12-22T05:18:24;99777.16;;;11.78;100.00
33404;BME280;19751;40.274;18.268;2023-12-22T05:20:49;99777.97;;;11.79;100.00
33404;BME280;19751;40.274;18.268;2023-12-22T05:23:15;99791.47;;;11.79;100.00
33404;BME280;19751;40.274;18.268;2023-12-22T05:25:41;99805.78;;;11.79;100.00
33404;BME280;19751;40.274;18.268;2023-12-22T05:28:06;99800.38;;;11.79;100.00
33404;BME280;19751;40.274;18.268;2023-12-22T05:30:32;99799.56;;;11.79;100.00
33404;BME280;19751;40.274;18.268;2023-12-22T05:32:57;99806.84;;;11.78;100.00
33404;BME280;19751;40.274;18.268;2023-12-22T05:35:23;99804.13;;;11.78;100.00
33404;BME280;19751;40.274;18.268;2023-12-22T05:37:48;99802.47;;;11.77;100.00
33404;BME280;19751;40.274;18.268;2023-12-22T05:40:14;99801.63;;;11.77;100.00
33404;BME280;19751;40.274;18.268;2023-12-22T05:42:39;99800.22;;;11.74;100.00
33404;BME280;19751;40.274;18.268;2023-12-22T05:45:05;99808.31;;;11.74;100.00
33404;BME280;19751;40.274;18.268;2023-12-22T05:47:32;99815.78;;;11.72;100.00
33404;BME280;19751;40.274;18.268;2023-12-22T05:49:58;99812.50;;;11.70;100.00
33404;BME280;19751;40.274;18.268;2023-12-22T05:52:23;99806.28;;;11.69;100.00
33404;BME280;19751;40.274;18.268;2023-12-22T05:54:49;99810.22;;;11.67;100.00
33404;BME280;19751;40.274;18.268;2023-12-22T05:57:14;99811.28;;;11.66;100.00
33404;BME280;19751;40.274;18.268;2023-12-22T05:59:40;99809.59;;;11.65;100.00
33404;BME280;19751;40.274;18.268;2023-12-22T06:02:05;99803.41;;;11.64;100.00
33404;BME280;19751;40.274;18.268;2023-12-22T06:04:31;99813.38;;;11.64;100.00
33404;BME280;19751;40.274;18.268;2023-12-22T06:06:57;99818.75;;;11.64;100.00
33404;BME280;19751;40.274;18.268;2023-12-22T06:09:22;99816.06;;;11.64;100.00
33404;BME280;19751;40.274;18.268;2023-12-22T06:11:48;99818.75;;;11.64;100.00
33404;BME280;19751;40.274;18.268;2023-12-22T06:14:14;99829.53;;;11.64;100.00
33404;BME280;19751;40.274;18.268;2023-12-22T06:16:40;99834.13;;;11.63;100.00
33404;BME280;19751;40.274;18.268;2023-12-22T06:19:05;99823.31;;;11.63;100.00
33404;BME280;19751;40.274;18.268;2023-12-22T06:21:31;99829.78;;;11.62;100.00
33404;BME280;19751;40.274;18.268;2023-12-22T06:23:57;99827.91;;;11.63;100.00
33404;BME280;19751;40.274;18.268;2023-12-22T06:26:23;99830.59;;;11.63;100.00
33404;BME280;19751;40.274;18.268;2023-12-22T06:28:49;99837.63;;;11.64;100.00
33404;BME280;19751;40.274;18.268;2023-12-22T06:31:21;99840.34;;;11.64;100.00
33404;BME280;19751;40.274;18.268;2023-12-22T06:33:50;99834.13;;;11.63;100.00
33404;BME280;19751;40.274;18.268;2023-12-22T06:36:24;99834.75;;;11.65;100.00
33404;BME280;19751;40.274;18.268;2023-12-22T06:38:53;99829.13;;;11.67;100.00
33404;BME280;19751;40.274;18.268;2023-12-22T06:41:23;99833.25;;;11.69;100.00
33404;BME280;19751;40.274;18.268;2023-12-22T06:43:50;99836.53;;;11.72;100.00
33404;BME280;19751;40.274;18.268;2023-12-22T06:46:20;99835.72;;;11.71;100.00
33404;BME280;19751;40.274;18.268;2023-12-22T06:48:46;99840.88;;;11.73;100.00
33404;BME280;19751;40.274;18.268;2023-12-22T06:51:24;99845.03;;;11.75;100.00
33404;BME280;19751;40.274;18.268;2023-12-22T06:53:51;99849.38;;;11.76;100.00
33404;BME280;19751;40.274;18.268;2023-12-22T06:56:28;99850.19;;;11.77;100.00
33404;BME280;19751;40.274;18.268;2023-12-22T06:58:56;99854.34;;;11.79;100.00
33404;BME280;19751;40.274;18.268;2023-12-22T07:01:33;99852.25;;;11.81;100.00
33404;BME280;19751;40.274;18.268;2023-12-22T07:03:59;99857.25;;;11.84;100.00
33404;BME280;19751;40.274;18.268;2023-12-22T07:06:26;99855.16;;;11.86;100.00
33404;BME280;19751;40.274;18.268;2023-12-22T07:11:45;99869.22;;;11.95;100.00
33404;BME280;19751;40.274;18.268;2023-12-22T07:14:11;99862.53;;;11.98;100.00
33404;BME280;19751;40.274;18.268;2023-12-22T07:16:37;99871.25;;;12.00;100.00
33404;BME280;19751;40.274;18.268;2023-12-22T07:19:03;99868.53;;;12.00;100.00
33404;BME280;19751;40.274;18.268;2023-12-22T07:21:29;99875.34;;;12.02;100.00
33404;BME280;19751;40.274;18.268;2023-12-22T07:23:54;99880.31;;;12.05;100.00
33404;BME280;19751;40.274;18.268;2023-12-22T07:26:20;99887.59;;;12.05;100.00
33404;BME280;19751;40.274;18.268;2023-12-22T07:28:49;99881.16;;;12.06;100.00
33404;BME280;19751;40.274;18.268;2023-12-22T07:31:15;99881.78;;;12.08;100.00
33404;BME280;19751;40.274;18.268;2023-12-22T07:33:41;99888.81;;;12.09;100.00
33404;BME280;19751;40.274;18.268;2023-12-22T07:36:07;99879.47;;;12.11;100.00
33404;BME280;19751;40.274;18.268;2023-12-22T07:38:32;99883.56;;;12.14;100.00
33404;BME280;19751;40.274;18.268;2023-12-22T07:40:58;99885.00;;;12.16;100.00
33404;BME280;19751;40.274;18.268;2023-12-22T07:43:24;99879.63;;;12.16;100.00
33404;BME280;19751;40.274;18.268;2023-12-22T07:45:49;99874.41;;;12.15;100.00
33404;BME280;19751;40.274;18.268;2023-12-22T07:48:16;99857.41;;;12.14;100.00
33404;BME280;19751;40.274;18.268;2023-12-22T07:50:42;99859.06;;;12.15;100.00
33404;BME280;19751;40.274;18.268;2023-12-22T07:53:07;99871.53;;;12.16;100.00
33404;BME280;19751;40.274;18.268;2023-12-22T07:55:33;99866.13;;;12.16;100.00
33404;BME280;19751;40.274;18.268;2023-12-22T07:57:59;99860.28;;;12.19;100.00
33404;BME280;19751;40.274;18.268;2023-12-22T08:00:24;99862.31;;;12.24;100.00
33404;BME280;19751;40.274;18.268;2023-12-22T08:02:50;99874.72;;;12.32;100.00
33404;BME280;19751;40.274;18.268;2023-12-22T08:05:17;99870.53;;;12.36;100.00
33404;BME280;19751;40.274;18.268;2023-12-22T08:07:44;99870.69;;;12.41;100.00
33404;BME280;19751;40.274;18.268;2023-12-22T08:10:09;99859.78;;;12.48;100.00
33404;BME280;19751;40.274;18.268;2023-12-22T08:12:35;99859.50;;;12.56;100.00
33404;BME280;19751;40.274;18.268;2023-12-22T08:15:01;99870.84;;;12.64;100.00
33404;BME280;19751;40.274;18.268;2023-12-22T08:17:27;99864.31;;;12.72;100.00
33404;BME280;19751;40.274;18.268;2023-12-22T08:19:52;99868.34;;;12.81;100.00
33404;BME280;19751;40.274;18.268;2023-12-22T08:22:18;99868.06;;;12.89;100.00
33404;BME280;19751;40.274;18.268;2023-12-22T08:24:43;99869.88;;;12.96;100.00
33404;BME280;19751;40.274;18.268;2023-12-22T08:27:09;99864.41;;;13.02;100.00
33404;BME280;19751;40.274;18.268;2023-12-22T08:29:35;99868.06;;;13.08;100.00
33404;BME280;19751;40.274;18.268;2023-12-22T08:32:00;99863.84;;;13.12;100.00
33404;BME280;19751;40.274;18.268;2023-12-22T08:34:27;99857.53;;;13.18;100.00
33404;BME280;19751;40.274;18.268;2023-12-22T08:36:52;99857.72;;;13.23;100.00
33404;BME280;19751;40.274;18.268;2023-12-22T08:39:18;99853.03;;;13.30;100.00
33404;BME280;19751;40.274;18.268;2023-12-22T08:41:44;99852.63;;;13.45;100.00
33404;BME280;19751;40.274;18.268;2023-12-22T08:44:10;99859.59;;;13.53;100.00
33404;BME280;19751;40.274;18.268;2023-12-22T08:46:36;99863.63;;;13.62;100.00
33404;BME280;19751;40.274;18.268;2023-12-22T08:49:02;99859.75;;;13.70;100.00
33404;BME280;19751;40.274;18.268;2023-12-22T08:51:28;99856.94;;;13.76;100.00
33404;BME280;19751;40.274;18.268;2023-12-22T08:53:54;99850.97;;;13.86;100.00
33404;BME280;19751;40.274;18.268;2023-12-22T08:56:21;99848.16;;;13.92;100.00
33404;BME280;19751;40.274;18.268;2023-12-22T08:58:47;99857.47;;;13.97;100.00
33404;BME280;19751;40.274;18.268;2023-12-22T09:01:16;99853.59;;;14.04;100.00
33404;BME280;19751;40.274;18.268;2023-12-22T09:03:42;99860.53;;;14.12;100.00
33404;BME280;19751;40.274;18.268;2023-12-22T09:06:21;99862.31;;;14.18;100.00
33404;BME280;19751;40.274;18.268;2023-12-22T09:08:47;99867.63;;;14.25;100.00
33404;BME280;19751;40.274;18.268;2023-12-22T09:11:15;99869.25;;;14.26;100.00
33404;BME280;19751;40.274;18.268;2023-12-22T09:13:42;99867.72;;;14.30;100.00
33404;BME280;19751;40.274;18.268;2023-12-22T09:16:08;99857.84;;;14.35;100.00
33404;BME280;19751;40.274;18.268;2023-12-22T09:18:34;99855.00;;;14.42;100.00
33404;BME280;19751;40.274;18.268;2023-12-22T09:21:00;99857.25;;;14.45;100.00
33404;BME280;19751;40.274;18.268;2023-12-22T09:23:26;99846.81;;;14.49;100.00
33404;BME280;19751;40.274;18.268;2023-12-22T09:25:52;99852.81;;;14.51;100.00
33404;BME280;19751;40.274;18.268;2023-12-22T09:28:18;99853.63;;;14.51;100.00
33404;BME280;19751;40.274;18.268;2023-12-22T09:30:43;99858.81;;;14.53;100.00
33404;BME280;19751;40.274;18.268;2023-12-22T09:33:09;99862.94;;;14.55;100.00
33404;BME280;19751;40.274;18.268;2023-12-22T09:35:36;99852.31;;;14.65;100.00
33404;BME280;19751;40.274;18.268;2023-12-22T09:38:02;99861.38;;;14.71;100.00
33404;BME280;19751;40.274;18.268;2023-12-22T09:40:28;99859.63;;;14.77;100.00
33404;BME280;19751;40.274;18.268;2023-12-22T09:42:57;99861.03;;;14.79;100.00
33404;BME280;19751;40.274;18.268;2023-12-22T09:45:23;99859.47;;;14.83;100.00
33404;BME280;19751;40.274;18.268;2023-12-22T09:47:50;99844.03;;;14.84;100.00
33404;BME280;19751;40.274;18.268;2023-12-22T09:50:17;99841.56;;;14.82;100.00
33404;BME280;19751;40.274;18.268;2023-12-22T09:52:43;99848.50;;;14.90;100.00
33404;BME280;19751;40.274;18.268;2023-12-22T09:55:13;99833.97;;;14.96;100.00
33404;BME280;19751;40.274;18.268;2023-12-22T09:57:39;99850.03;;;14.98;100.00
33404;BME280;19751;40.274;18.268;2023-12-22T10:00:09;99846.00;;;15.00;100.00
33404;BME280;19751;40.274;18.268;2023-12-22T10:02:36;99849.53;;;15.01;100.00
33404;BME280;19751;40.274;18.268;2023-12-22T10:05:03;99859.66;;;15.05;100.00
33404;BME280;19751;40.274;18.268;2023-12-22T10:07:30;99864.38;;;15.10;100.00
33404;BME280;19751;40.274;18.268;2023-12-22T10:09:55;99871.81;;;15.14;100.00
33404;BME280;19751;40.274;18.268;2023-12-22T10:12:22;99873.78;;;15.19;100.00
33404;BME280;19751;40.274;18.268;2023-12-22T10:14:48;99867.88;;;15.22;100.00
33404;BME280;19751;40.274;18.268;2023-12-22T10:17:15;99864.66;;;15.25;100.00
33404;BME280;19751;40.274;18.268;2023-12-22T10:19:42;99866.66;;;15.30;100.00
33404;BME280;19751;40.274;18.268;2023-12-22T10:22:07;99872.94;;;15.30;100.00
33404;BME280;19751;40.274;18.268;2023-12-22T10:24:46;99874.31;;;15.33;100.00
33404;BME280;19751;40.274;18.268;2023-12-22T10:27:18;99857.56;;;15.36;100.00
33404;BME280;19751;40.274;18.268;2023-12-22T10:29:56;99862.16;;;15.35;100.00
33404;BME280;19751;40.274;18.268;2023-12-22T10:32:22;99848.59;;;15.35;100.00
33404;BME280;19751;40.274;18.268;2023-12-22T10:34:50;99843.75;;;15.37;100.00
33404;BME280;19751;40.274;18.268;2023-12-22T10:37:16;99845.16;;;15.40;100.00
33404;BME280;19751;40.274;18.268;2023-12-22T10:39:41;99839.47;;;15.41;100.00
33404;BME280;19751;40.274;18.268;2023-12-22T10:42:07;99849.03;;;15.44;100.00
33404;BME280;19751;40.274;18.268;2023-12-22T10:44:34;99849.84;;;15.45;100.00
33404;BME280;19751;40.274;18.268;2023-12-22T10:47:00;99852.09;;;15.48;100.00
33404;BME280;19751;40.274;18.268;2023-12-22T10:49:26;99859.16;;;15.49;100.00
33404;BME280;19751;40.274;18.268;2023-12-22T10:51:52;99849.72;;;15.51;100.00
33404;BME280;19751;40.274;18.268;2023-12-22T10:54:19;99840.25;;;15.54;100.00
33404;BME280;19751;40.274;18.268;2023-12-22T10:56:45;99844.13;;;15.58;100.00
33404;BME280;19751;40.274;18.268;2023-12-22T10:59:10;99846.34;;;15.61;100.00
33404;BME280;19751;40.274;18.268;2023-12-22T11:01:37;99831.38;;;15.58;100.00
33404;BME280;19751;40.274;18.268;2023-12-22T11:04:07;99830.88;;;15.61;100.00
33404;BME280;19751;40.274;18.268;2023-12-22T11:06:35;99830.63;;;15.63;100.00
33404;BME280;19751;40.274;18.268;2023-12-22T11:09:06;99831.25;;;15.65;100.00
33404;BME280;19751;40.274;18.268;2023-12-22T11:11:33;99817.91;;;15.63;100.00
33404;BME280;19751;40.274;18.268;2023-12-22T11:14:00;99810.59;;;15.64;100.00
33404;BME280;19751;40.274;18.268;2023-12-22T11:16:30;99802.81;;;15.68;100.00
33404;BME280;19751;40.274;18.268;2023-12-22T11:18:56;99816.69;;;15.71;100.00
33404;BME280;19751;40.274;18.268;2023-12-22T11:21:23;99819.19;;;15.73;100.00
33404;BME280;19751;40.274;18.268;2023-12-22T11:23:50;99806.41;;;15.73;100.00
33404;BME280;19751;40.274;18.268;2023-12-22T11:26:20;99813.22;;;15.76;100.00
33404;BME280;19751;40.274;18.268;2023-12-22T11:28:47;99805.44;;;15.79;99.95
33404;BME280;19751;40.274;18.268;2023-12-22T11:31:13;99807.66;;;15.82;100.00
33404;BME280;19751;40.274;18.268;2023-12-22T11:33:50;99799.75;;;15.81;97.69
33404;BME280;19751;40.274;18.268;2023-12-22T11:36:17;99796.53;;;15.84;98.00
33404;BME280;19751;40.274;18.268;2023-12-22T11:38:46;99790.94;;;15.90;95.86
33404;BME280;19751;40.274;18.268;2023-12-22T11:41:21;99800.25;;;15.95;95.07
33404;BME280;19751;40.274;18.268;2023-12-22T11:43:50;99802.41;;;15.93;95.77
33404;BME280;19751;40.274;18.268;2023-12-22T11:46:17;99800.72;;;15.91;99.11
33404;BME280;19751;40.274;18.268;2023-12-22T11:48:49;99804.03;;;15.94;100.00
33404;BME280;19751;40.274;18.268;2023-12-22T11:51:17;99804.38;;;15.97;100.00
33404;BME280;19751;40.274;18.268;2023-12-22T11:53:43;99801.06;;;15.95;100.00
33404;BME280;19751;40.274;18.268;2023-12-22T11:56:09;99795.16;;;15.98;100.00
33404;BME280;19751;40.274;18.268;2023-12-22T11:58:40;99797.13;;;16.03;99.60
33404;BME280;19751;40.274;18.268;2023-12-22T12:01:10;99804.78;;;16.06;100.00
33404;BME280;19751;40.274;18.268;2023-12-22T12:03:57;99799.41;;;16.11;100.00
33404;BME280;19751;40.274;18.268;2023-12-22T12:08:55;99797.25;;;16.13;100.00
33404;BME280;19751;40.274;18.268;2023-12-22T12:11:22;99799.16;;;16.12;100.00
33404;BME280;19751;40.274;18.268;2023-12-22T12:13:49;99797.78;;;16.10;100.00
33404;BME280;19751;40.274;18.268;2023-12-22T12:16:19;99806.50;;;16.12;100.00
33404;BME280;19751;40.274;18.268;2023-12-22T12:18:47;99797.78;;;16.10;100.00
33404;BME280;19751;40.274;18.268;2023-12-22T12:21:12;99804.84;;;16.11;100.00
33404;BME280;19751;40.274;18.268;2023-12-22T12:23:38;99801.38;;;16.15;100.00
33404;BME280;19751;40.274;18.268;2023-12-22T12:26:06;99795.69;;;16.17;100.00
33404;BME280;19751;40.274;18.268;2023-12-22T12:28:33;99796.59;;;16.23;100.00
33404;BME280;19751;40.274;18.268;2023-12-22T12:31:07;99782.69;;;16.19;100.00
33404;BME280;19751;40.274;18.268;2023-12-22T12:33:35;99788.88;;;16.14;100.00
33404;BME280;19751;40.274;18.268;2023-12-22T12:36:02;99781.81;;;16.13;100.00
33404;BME280;19751;40.274;18.268;2023-12-22T12:38:55;99782.63;;;16.14;100.00
33404;BME280;19751;40.274;18.268;2023-12-22T12:41:36;99775.03;;;16.16;100.00